Terminal Aerodrome Forecast
Issued by NWS

Home | Current Version | Previous Version | Text Only | Print | Product List | Glossary On
Versions: 1 2 3 4 5 6 7 8 9 10 11 12 13 14 15 16 17 18 19 20 21
000
FTUS42 KGSP 221402 AAA
TAFAND
TAF AMD
KAND 221402Z 2214/2312 05009KT 4SM BR OVC007
      TEMPO 2214/2216 2SM BR OVC004
     FM221900 06008KT P6SM OVC011
     FM230100 07008KT 4SM BR OVC006
     FM230700 06007KT 2SM -RA BR OVC004=

USA.gov is the U.S. government's official web portal to all federal, state and local government web resources and services.